Time;durP1;ratioP1;P1;durP2;ratioP2;P2;SDS_P1;SDS_P2;PMS_P1;PMS_P2;Temp;Humidity;BMP_temperature;BMP_pressure;BME280_temperature;BME280_humidity;BME280_pressure;Samples;Min_cycle;Max_cycle;Signal;HPM_P1;HPM_P2
2022/04/29 00:02:11;;;;;;;6.38;5.38;;;;;;;;;;5103810;28;20212;-67
2022/04/29 00:04:38;;;;;;;6.40;5.80;;;;;;;;;;5103647;28;20195;-67
2022/04/29 00:07:04;;;;;;;7.68;5.47;;;;;;;;;;5103596;28;20192;-67
2022/04/29 00:09:31;;;;;;;6.57;5.63;;;;;;;;;;5103656;28;20195;-67
2022/04/29 00:11:57;;;;;;;5.70;4.90;;;;;;;;;;5103501;28;20206;-67
2022/04/29 00:14:23;;;;;;;5.43;4.93;;;;;;;;;;5103710;28;20240;-67
2022/04/29 00:16:50;;;;;;;5.15;4.70;;;;;;;;;;5103419;28;20258;-67
2022/04/29 00:19:17;;;;;;;7.40;5.10;;;;;;;;;;5103480;28;20195;-67
2022/04/29 00:21:44;;;;;;;4.82;4.53;;;;;;;;;;5103440;28;20196;-67
2022/04/29 00:24:11;;;;;;;6.53;4.50;;;;;;;;;;5103582;28;20204;-67
2022/04/29 00:26:38;;;;;;;4.93;4.57;;;;;;;;;;5103324;28;20263;-67
2022/04/29 00:29:04;;;;;;;5.43;4.97;;;;;;;;;;5103394;28;20200;-67
2022/04/29 00:31:30;;;;;;;5.13;4.47;;;;;;;;;;5103384;28;20249;-67
2022/04/29 00:33:57;;;;;;;4.93;4.70;;;;;;;;;;5103393;28;20196;-67
2022/04/29 00:36:24;;;;;;;5.15;4.85;;;;;;;;;;5102831;28;20479;-67
2022/04/29 00:38:51;;;;;;;6.07;5.57;;;;;;;;;;5103005;28;20233;-67
2022/04/29 00:41:17;;;;;;;6.43;5.63;;;;;;;;;;5103424;28;20200;-67
2022/04/29 00:43:43;;;;;;;5.88;5.47;;;;;;;;;;5102856;28;20233;-67
2022/04/29 00:46:10;;;;;;;5.60;4.82;;;;;;;;;;5102748;28;20429;-67
2022/04/29 00:48:36;;;;;;;5.13;4.75;;;;;;;;;;5102947;28;20200;-67
2022/04/29 00:51:03;;;;;;;6.03;5.50;;;;;;;;;;5103022;28;20499;-67
2022/04/29 00:53:31;;;;;;;5.65;5.25;;;;;;;;;;5102820;28;20256;-67
2022/04/29 00:55:57;;;;;;;6.63;5.90;;;;;;;;;;5102629;28;20244;-67
2022/04/29 00:58:33;;;;;;;7.55;5.10;;;;;;;;;;5102809;28;20242;-67
2022/04/29 01:01:00;;;;;;;5.68;5.20;;;;;;;;;;5102978;28;20245;-67
2022/04/29 01:03:28;;;;;;;5.80;5.40;;;;;;;;;;5102656;28;20506;-67
2022/04/29 01:05:54;;;;;;;6.03;5.53;;;;;;;;;;5102491;28;20220;-67
2022/04/29 01:08:21;;;;;;;7.82;5.63;;;;;;;;;;5102746;28;20191;-67
2022/04/29 01:10:49;;;;;;;5.65;5.35;;;;;;;;;;5102207;28;20196;-67
2022/04/29 01:13:17;;;;;;;5.85;5.32;;;;;;;;;;5102669;28;20195;-67
2022/04/29 01:15:44;;;;;;;5.35;4.95;;;;;;;;;;5102681;28;20223;-67
2022/04/29 01:18:10;;;;;;;5.13;4.82;;;;;;;;;;5101651;28;20204;-67
2022/04/29 01:20:37;;;;;;;6.75;5.38;;;;;;;;;;5102946;28;20211;-67
2022/04/29 01:23:08;;;;;;;6.65;5.57;;;;;;;;;;5103040;28;20230;-67
2022/04/29 01:25:34;;;;;;;5.88;5.38;;;;;;;;;;5102549;28;20193;-67
2022/04/29 01:28:01;;;;;;;5.80;5.30;;;;;;;;;;5102173;28;20265;-67
2022/04/29 01:30:27;;;;;;;6.03;5.53;;;;;;;;;;5102478;28;20359;-67
2022/04/29 01:32:54;;;;;;;6.60;5.05;;;;;;;;;;5102568;28;20431;-67
2022/04/29 01:35:20;;;;;;;8.38;6.32;;;;;;;;;;5102374;28;20425;-67
2022/04/29 01:37:46;;;;;;;6.90;6.18;;;;;;;;;;5102212;28;20196;-67
2022/04/29 01:40:14;;;;;;;6.18;5.78;;;;;;;;;;5102347;28;20233;-67
2022/04/29 01:42:41;;;;;;;6.35;5.72;;;;;;;;;;5102361;28;20223;-67
2022/04/29 01:45:09;;;;;;;6.35;5.75;;;;;;;;;;5102418;28;20267;-67
2022/04/29 01:47:35;;;;;;;6.38;5.78;;;;;;;;;;5102127;28;20525;-67
2022/04/29 01:50:01;;;;;;;6.70;6.13;;;;;;;;;;5102489;28;20241;-67
2022/04/29 01:52:27;;;;;;;6.45;5.95;;;;;;;;;;5102404;28;20249;-67
2022/04/29 01:54:54;;;;;;;6.05;5.65;;;;;;;;;;5102311;28;20245;-67
2022/04/29 01:57:21;;;;;;;8.18;6.03;;;;;;;;;;5101895;28;20227;-67
2022/04/29 01:59:48;;;;;;;6.25;5.75;;;;;;;;;;5102372;28;20437;-67
2022/04/29 02:02:14;;;;;;;6.93;6.15;;;;;;;;;;5101908;28;20229;-67
2022/04/29 02:04:40;;;;;;;6.15;5.60;;;;;;;;;;5102001;28;20196;-67
2022/04/29 02:07:07;;;;;;;6.05;5.55;;;;;;;;;;5101845;28;20214;-67
2022/04/29 02:09:33;;;;;;;6.28;5.85;;;;;;;;;;5101963;28;20195;-67
2022/04/29 02:12:05;;;;;;;5.65;5.20;;;;;;;;;;5102269;28;20196;-67
2022/04/29 02:14:33;;;;;;;5.82;5.40;;;;;;;;;;5102283;28;20421;-67
2022/04/29 02:17:01;;;;;;;6.47;5.53;;;;;;;;;;5101906;28;20220;-67
2022/04/29 02:19:28;;;;;;;5.90;5.47;;;;;;;;;;5102066;28;20200;-67
2022/04/29 02:21:55;;;;;;;6.65;5.10;;;;;;;;;;5102153;28;20195;-67
2022/04/29 02:24:21;;;;;;;5.80;5.32;;;;;;;;;;5105791;28;20211;-67
2022/04/29 02:26:47;;;;;;;5.85;5.45;;;;;;;;;;5105590;28;20192;-67
2022/04/29 02:29:14;;;;;;;7.20;6.00;;;;;;;;;;5105732;28;20195;-67
2022/04/29 02:31:41;;;;;;;5.53;5.03;;;;;;;;;;5105657;28;20203;-67
2022/04/29 02:34:07;;;;;;;6.10;5.60;;;;;;;;;;5105611;28;20195;-67
2022/04/29 02:36:34;;;;;;;5.85;5.50;;;;;;;;;;5105012;28;20216;-67
2022/04/29 02:39:02;;;;;;;5.82;5.43;;;;;;;;;;5105381;28;20536;-67
2022/04/29 02:41:28;;;;;;;6.40;5.90;;;;;;;;;;5105571;28;20195;-67
2022/04/29 02:43:54;;;;;;;5.90;5.40;;;;;;;;;;5105487;28;20241;-67
2022/04/29 02:46:20;;;;;;;6.05;5.57;;;;;;;;;;5105043;28;20483;-67
2022/04/29 02:48:48;;;;;;;6.00;5.50;;;;;;;;;;5105344;28;20195;-67
2022/04/29 02:51:15;;;;;;;6.00;5.50;;;;;;;;;;5105182;28;20514;-67
2022/04/29 02:53:42;;;;;;;6.55;6.10;;;;;;;;;;5105315;28;20195;-67
2022/04/29 02:56:08;;;;;;;6.03;5.57;;;;;;;;;;5104869;28;20224;-67
2022/04/29 02:58:34;;;;;;;7.00;6.30;;;;;;;;;;5105163;28;20212;-67
2022/04/29 03:01:01;;;;;;;6.47;5.97;;;;;;;;;;5105030;28;20211;-67
2022/04/29 03:03:28;;;;;;;7.22;6.00;;;;;;;;;;5105078;28;20196;-67
2022/04/29 03:05:56;;;;;;;6.65;6.05;;;;;;;;;;5104776;28;20281;-67
2022/04/29 03:08:22;;;;;;;6.60;6.00;;;;;;;;;;5105042;28;20228;-67
2022/04/29 03:10:48;;;;;;;9.30;6.43;;;;;;;;;;5105018;28;20202;-67
2022/04/29 03:13:15;;;;;;;6.40;5.90;;;;;;;;;;5104858;28;20222;-67
2022/04/29 03:15:41;;;;;;;6.53;5.93;;;;;;;;;;5104821;28;20222;-67
2022/04/29 03:18:20;;;;;;;6.57;6.10;;;;;;;;;;5104515;28;20534;-67
2022/04/29 03:20:49;;;;;;;6.47;5.90;;;;;;;;;;5104866;28;20521;-67
2022/04/29 03:23:16;;;;;;;6.15;5.68;;;;;;;;;;5104846;28;20455;-67
2022/04/29 03:25:42;;;;;;;7.05;6.55;;;;;;;;;;5104702;28;20432;-67
2022/04/29 03:28:09;;;;;;;7.18;6.47;;;;;;;;;;5104314;28;20424;-67
2022/04/29 03:30:36;;;;;;;7.95;6.82;;;;;;;;;;5104461;28;20199;-67
2022/04/29 03:33:06;;;;;;;6.90;6.20;;;;;;;;;;5104404;28;20195;-67
2022/04/29 03:35:38;;;;;;;7.88;7.18;;;;;;;;;;5103888;28;20241;-67
2022/04/29 03:38:04;;;;;;;6.90;6.38;;;;;;;;;;5104089;28;20564;-67
2022/04/29 03:40:31;;;;;;;6.88;6.35;;;;;;;;;;5104338;28;20495;-67
2022/04/29 03:42:58;;;;;;;9.68;6.88;;;;;;;;;;5104199;28;20203;-67
2022/04/29 03:45:25;;;;;;;7.00;6.50;;;;;;;;;;5103964;28;20527;-67
2022/04/29 03:47:52;;;;;;;7.63;6.97;;;;;;;;;;5103660;28;20483;-67
2022/04/29 03:50:18;;;;;;;7.47;6.88;;;;;;;;;;5103990;28;20196;-67
2022/04/29 03:52:45;;;;;;;7.57;6.95;;;;;;;;;;5104058;28;20522;-67
2022/04/29 03:55:11;;;;;;;7.80;6.82;;;;;;;;;;5103965;28;20196;-67
2022/04/29 03:57:39;;;;;;;7.32;6.63;;;;;;;;;;5103618;28;20219;-67
2022/04/29 04:00:06;;;;;;;7.78;7.00;;;;;;;;;;5103680;28;20409;-67
2022/04/29 04:02:32;;;;;;;8.18;7.43;;;;;;;;;;5103658;28;20249;-67
2022/04/29 04:04:59;;;;;;;8.70;7.72;;;;;;;;;;5103772;28;20215;-67
2022/04/29 04:07:25;;;;;;;8.75;7.18;;;;;;;;;;5103483;28;20191;-67
2022/04/29 04:09:51;;;;;;;7.95;7.15;;;;;;;;;;5103649;28;20196;-67
2022/04/29 04:12:17;;;;;;;7.97;7.30;;;;;;;;;;5104018;28;20262;-67
2022/04/29 04:14:45;;;;;;;8.32;7.53;;;;;;;;;;5103371;28;20374;-67
2022/04/29 04:17:11;;;;;;;8.05;7.35;;;;;;;;;;5103419;28;20281;-67
2022/04/29 04:19:37;;;;;;;7.90;7.30;;;;;;;;;;5103550;28;20420;-67
2022/04/29 04:22:04;;;;;;;8.27;7.45;;;;;;;;;;5103563;28;20204;-67
2022/04/29 04:24:31;;;;;;;8.75;7.90;;;;;;;;;;5103262;28;20191;-67
2022/04/29 04:26:57;;;;;;;10.35;8.25;;;;;;;;;;5102920;28;20245;-67
2022/04/29 04:29:23;;;;;;;9.10;8.20;;;;;;;;;;5103168;28;20522;-67
2022/04/29 04:31:51;;;;;;;9.43;8.50;;;;;;;;;;5103594;28;20549;-67
2022/04/29 04:37:13;;;;;;;9.13;8.23;;;;;;;;;;5060542;28;20243;-67
2022/04/29 04:39:40;;;;;;;8.75;7.95;;;;;;;;;;5092553;28;20230;-67
2022/04/29 04:42:06;;;;;;;9.35;8.48;;;;;;;;;;5103103;28;20196;-67
2022/04/29 04:44:33;;;;;;;10.65;8.48;;;;;;;;;;5102793;28;20195;-67
2022/04/29 04:47:00;;;;;;;14.45;8.73;;;;;;;;;;5101741;28;20499;-67
2022/04/29 04:49:26;;;;;;;9.27;8.38;;;;;;;;;;5102957;28;20428;-67
2022/04/29 04:51:53;;;;;;;11.68;8.30;;;;;;;;;;5102849;28;20422;-67
2022/04/29 04:54:19;;;;;;;9.50;8.60;;;;;;;;;;5102758;28;20212;-67
2022/04/29 04:56:45;;;;;;;9.75;8.70;;;;;;;;;;5102475;28;20273;-67
2022/04/29 04:59:12;;;;;;;9.13;8.23;;;;;;;;;;5102969;28;20543;-67
2022/04/29 05:01:38;;;;;;;10.55;8.55;;;;;;;;;;5102563;28;20199;-67
2022/04/29 05:04:06;;;;;;;10.73;9.20;;;;;;;;;;5102763;28;20237;-67
2022/04/29 05:06:32;;;;;;;10.20;9.23;;;;;;;;;;5102250;28;20216;-67
2022/04/29 05:08:58;;;;;;;10.40;9.52;;;;;;;;;;5102555;28;20241;-67
2022/04/29 05:11:25;;;;;;;9.90;9.00;;;;;;;;;;5102646;28;20196;-67
2022/04/29 05:13:51;;;;;;;9.77;8.95;;;;;;;;;;5102468;28;20195;-67
2022/04/29 05:16:17;;;;;;;9.98;9.18;;;;;;;;;;5102482;28;20200;-67
2022/04/29 05:18:43;;;;;;;10.73;9.73;;;;;;;;;;5102632;28;20261;-67
2022/04/29 05:21:11;;;;;;;10.45;9.43;;;;;;;;;;5102368;28;20218;-67
2022/04/29 05:23:37;;;;;;;9.45;8.55;;;;;;;;;;5102545;28;20196;-67
2022/04/29 05:26:04;;;;;;;9.07;8.02;;;;;;;;;;5101875;28;20233;-67
2022/04/29 05:28:30;;;;;;;10.30;9.20;;;;;;;;;;5101837;28;20196;-67
2022/04/29 05:30:56;;;;;;;12.85;8.52;;;;;;;;;;5101853;28;20240;-67
2022/04/29 05:33:23;;;;;;;8.65;7.80;;;;;;;;;;5101862;28;20196;-67
2022/04/29 05:35:49;;;;;;;9.32;8.43;;;;;;;;;;5101669;28;20222;-67
2022/04/29 05:38:17;;;;;;;9.18;8.27;;;;;;;;;;5101917;28;20219;-67
2022/04/29 05:43:27;;;;;;;12.05;8.55;;;;;;;;;;5105265;28;20473;-67
2022/04/29 05:45:54;;;;;;;9.00;8.13;;;;;;;;;;5102222;28;20387;-67
2022/04/29 05:48:20;;;;;;;9.45;8.32;;;;;;;;;;5101445;28;20560;-67
2022/04/29 05:50:47;;;;;;;11.23;8.52;;;;;;;;;;5101863;28;20475;-67
2022/04/29 05:53:15;;;;;;;10.10;8.80;;;;;;;;;;5101566;28;20240;-67
2022/04/29 05:55:42;;;;;;;9.48;8.50;;;;;;;;;;5101535;28;20226;-67
2022/04/29 05:58:09;;;;;;;10.52;8.43;;;;;;;;;;5103656;28;20261;-67
2022/04/29 06:00:35;;;;;;;9.23;8.20;;;;;;;;;;5105506;28;20195;-67
2022/04/29 06:03:03;;;;;;;9.65;8.65;;;;;;;;;;5105416;28;20200;-67
2022/04/29 06:05:29;;;;;;;13.10;8.60;;;;;;;;;;5105612;28;20547;-67
2022/04/29 06:07:55;;;;;;;9.38;7.85;;;;;;;;;;5105096;28;20261;-67
2022/04/29 06:10:22;;;;;;;9.07;8.18;;;;;;;;;;5105837;28;20202;-58
2022/04/29 06:12:49;;;;;;;8.93;8.13;;;;;;;;;;5105427;28;20195;-57
2022/04/29 06:15:17;;;;;;;11.90;8.63;;;;;;;;;;5099116;28;20282;-57
2022/04/29 06:17:43;;;;;;;9.23;8.30;;;;;;;;;;5089247;28;20260;-58
2022/04/29 06:20:10;;;;;;;9.07;8.18;;;;;;;;;;5101726;28;20495;-57
2022/04/29 06:22:42;;;;;;;10.23;9.20;;;;;;;;;;5100826;28;20580;-56
2022/04/29 06:25:08;;;;;;;15.65;9.23;;;;;;;;;;5098878;28;20253;-56
2022/04/29 06:27:34;;;;;;;10.13;9.13;;;;;;;;;;5098764;28;20268;-56
2022/04/29 06:30:02;;;;;;;14.60;8.80;;;;;;;;;;5098772;28;20216;-56
2022/04/29 06:32:28;;;;;;;11.10;8.95;;;;;;;;;;5099026;28;20226;-56
2022/04/29 06:34:55;;;;;;;9.63;8.82;;;;;;;;;;5099267;28;20204;-57
2022/04/29 06:37:21;;;;;;;12.50;8.10;;;;;;;;;;5096343;28;20253;-56
2022/04/29 06:39:47;;;;;;;10.95;8.90;;;;;;;;;;5098925;28;20208;-56
2022/04/29 06:42:14;;;;;;;10.77;9.68;;;;;;;;;;5099209;28;20245;-58
2022/04/29 06:44:40;;;;;;;10.73;9.05;;;;;;;;;;5099307;28;20208;-57
2022/04/29 06:47:08;;;;;;;15.48;9.57;;;;;;;;;;5098915;28;20208;-56
2022/04/29 06:49:34;;;;;;;16.13;9.52;;;;;;;;;;5099188;28;20215;-56
2022/04/29 06:52:00;;;;;;;11.52;9.07;;;;;;;;;;5099252;28;20207;-57
2022/04/29 06:54:26;;;;;;;10.65;9.45;;;;;;;;;;5099066;28;20237;-56
2022/04/29 06:56:53;;;;;;;12.27;10.13;;;;;;;;;;5098272;28;20212;-57
2022/04/29 06:59:19;;;;;;;15.80;11.00;;;;;;;;;;5099146;28;20421;-57
2022/04/29 07:01:45;;;;;;;11.43;10.10;;;;;;;;;;5099083;28;20292;-57
2022/04/29 07:04:13;;;;;;;10.63;9.63;;;;;;;;;;5099031;28;20436;-57
2022/04/29 07:06:39;;;;;;;10.18;9.18;;;;;;;;;;5098825;28;20232;-57
2022/04/29 07:09:06;;;;;;;11.70;10.02;;;;;;;;;;5097902;28;20219;-56
2022/04/29 07:11:32;;;;;;;10.82;9.38;;;;;;;;;;5099038;28;20255;-56
2022/04/29 07:13:58;;;;;;;13.90;9.48;;;;;;;;;;5080760;28;20212;-57
2022/04/29 07:16:24;;;;;;;12.32;9.73;;;;;;;;;;5077675;28;20260;-57
2022/04/29 07:18:51;;;;;;;9.63;8.77;;;;;;;;;;5078470;28;20223;-56
2022/04/29 07:21:18;;;;;;;12.73;8.93;;;;;;;;;;5078299;28;20251;-55
2022/04/29 07:23:44;;;;;;;10.13;8.60;;;;;;;;;;5088994;28;20215;-56
2022/04/29 07:26:11;;;;;;;12.55;9.32;;;;;;;;;;5098118;28;20478;-56
2022/04/29 07:28:37;;;;;;;16.08;9.82;;;;;;;;;;5098632;28;20227;-55
2022/04/29 07:31:04;;;;;;;11.20;8.57;;;;;;;;;;5098354;28;20208;-57
2022/04/29 07:33:30;;;;;;;10.15;8.23;;;;;;;;;;5098195;28;20590;-56
2022/04/29 07:44:09;;;;;;;10.65;8.70;;;;;;;;;;5097493;28;20265;-57
2022/04/29 07:46:36;;;;;;;9.57;8.52;;;;;;;;;;5097583;28;20207;-56
2022/04/29 07:49:03;;;;;;;9.98;8.57;;;;;;;;;;5097758;28;20203;-56
2022/04/29 07:51:29;;;;;;;14.20;9.20;;;;;;;;;;5097966;28;20438;-58
2022/04/29 07:53:57;;;;;;;12.73;8.43;;;;;;;;;;5097692;28;20207;-57
2022/04/29 07:56:23;;;;;;;10.18;8.70;;;;;;;;;;5097640;28;20576;-56
2022/04/29 07:58:49;;;;;;;9.40;8.25;;;;;;;;;;5097888;28;20639;-57
2022/04/29 08:01:16;;;;;;;9.73;8.70;;;;;;;;;;5097747;28;20536;-58
2022/04/29 08:03:42;;;;;;;10.30;9.20;;;;;;;;;;5097427;28;20253;-57
2022/04/29 08:06:09;;;;;;;13.65;9.20;;;;;;;;;;5096399;28;20227;-57
2022/04/29 08:08:37;;;;;;;10.30;8.70;;;;;;;;;;5096940;28;20203;-57
2022/04/29 08:11:05;;;;;;;12.40;8.52;;;;;;;;;;5097188;28;20515;-57
2022/04/29 08:13:31;;;;;;;12.70;9.20;;;;;;;;;;5077039;28;20212;-57
2022/04/29 08:15:59;;;;;;;10.73;8.70;;;;;;;;;;5086008;28;20204;-57
2022/04/29 08:18:26;;;;;;;10.05;8.55;;;;;;;;;;5096984;28;20780;-58
2022/04/29 08:20:52;;;;;;;8.40;7.60;;;;;;;;;;5097291;28;20215;-58
2022/04/29 08:23:18;;;;;;;9.63;8.60;;;;;;;;;;5097683;28;20527;-56
2022/04/29 08:25:44;;;;;;;11.43;9.63;;;;;;;;;;5096886;28;20212;-56
2022/04/29 08:28:12;;;;;;;10.75;9.23;;;;;;;;;;5096896;28;20401;-56
2022/04/29 08:30:39;;;;;;;9.82;8.80;;;;;;;;;;5097170;28;20218;-57
2022/04/29 08:33:06;;;;;;;12.93;9.02;;;;;;;;;;5096891;28;20222;-56
2022/04/29 08:35:32;;;;;;;12.18;8.45;;;;;;;;;;5097154;28;20218;-57
2022/04/29 08:37:58;;;;;;;13.63;9.13;;;;;;;;;;5095989;28;20450;-56
2022/04/29 08:40:25;;;;;;;14.18;8.68;;;;;;;;;;5096897;28;20273;-56
2022/04/29 08:42:53;;;;;;;11.48;8.45;;;;;;;;;;5096680;28;20220;-57
2022/04/29 08:45:21;;;;;;;11.55;8.35;;;;;;;;;;5096684;28;20565;-58
2022/04/29 08:47:48;;;;;;;13.57;8.02;;;;;;;;;;5095944;28;20344;-58
2022/04/29 08:50:15;;;;;;;11.32;8.60;;;;;;;;;;5097338;28;20441;-57
2022/04/29 08:52:41;;;;;;;15.23;8.63;;;;;;;;;;5096988;28;20546;-57
2022/04/29 09:00:52;;;;;;;8.40;7.60;;;;;;;;;;5054043;28;20236;-57
2022/04/29 09:03:20;;;;;;;9.25;7.35;;;;;;;;;;5054123;28;20267;-57
2022/04/29 09:05:47;;;;;;;7.05;6.22;;;;;;;;;;5072314;28;20550;-58
2022/04/29 09:08:14;;;;;;;8.43;6.13;;;;;;;;;;5095910;28;20208;-59
2022/04/29 09:10:48;;;;;;;7.20;5.47;;;;;;;;;;5096874;28;20214;-57
2022/04/29 09:13:15;;;;;;;9.27;6.20;;;;;;;;;;5096493;28;20203;-58
2022/04/29 09:15:48;;;;;;;8.32;6.32;;;;;;;;;;5096106;28;20590;-58
2022/04/29 09:18:27;;;;;;;7.82;5.50;;;;;;;;;;5095738;28;20230;-58
2022/04/29 09:20:54;;;;;;;5.45;4.72;;;;;;;;;;5096528;28;20208;-59
2022/04/29 09:23:25;;;;;;;6.60;4.63;;;;;;;;;;5095452;28;20538;-59
2022/04/29 09:25:59;;;;;;;5.32;4.57;;;;;;;;;;5096654;28;20208;-58
2022/04/29 09:28:26;;;;;;;4.93;4.53;;;;;;;;;;5097242;28;20200;-57
2022/04/29 09:30:54;;;;;;;7.90;5.15;;;;;;;;;;5096708;28;20210;-59
2022/04/29 09:33:22;;;;;;;5.28;4.05;;;;;;;;;;5102012;28;20211;-58
2022/04/29 09:35:49;;;;;;;6.47;4.28;;;;;;;;;;5102967;28;20211;-58
2022/04/29 09:41:00;;;;;;;4.28;3.58;;;;;;;;;;5102547;28;20222;-59
2022/04/29 09:43:33;;;;;;;4.82;3.47;;;;;;;;;;5102687;28;20211;-59
2022/04/29 09:46:09;;;;;;;3.60;3.30;;;;;;;;;;5102307;28;20207;-59
2022/04/29 09:48:50;;;;;;;5.47;4.35;;;;;;;;;;5102694;28;20214;-60
2022/04/29 09:51:36;;;;;;;2.75;2.55;;;;;;;;;;5102214;28;20286;-59
2022/04/29 09:54:08;;;;;;;3.65;3.30;;;;;;;;;;5102973;28;20211;-60
2022/04/29 09:56:34;;;;;;;2.20;2.20;;;;;;;;;;5102348;28;20287;-59
2022/04/29 09:59:01;;;;;;;4.95;4.22;;;;;;;;;;5100047;28;20212;-58
2022/04/29 10:01:27;;;;;;;3.40;3.10;;;;;;;;;;5099635;28;20522;-59
2022/04/29 10:03:55;;;;;;;3.40;3.10;;;;;;;;;;5102716;28;20219;-59
2022/04/29 10:06:21;;;;;;;2.53;2.33;;;;;;;;;;5101890;28;20220;-59
2022/04/29 10:08:48;;;;;;;2.42;2.33;;;;;;;;;;5102310;28;20345;-59
2022/04/29 10:11:14;;;;;;;3.45;3.20;;;;;;;;;;5101784;28;20257;-59
2022/04/29 10:13:41;;;;;;;3.03;2.20;;;;;;;;;;5102530;28;20208;-58
2022/04/29 10:16:10;;;;;;;3.55;3.30;;;;;;;;;;5102042;28;20471;-59
2022/04/29 10:21:24;;;;;;;3.03;2.67;;;;;;;;;;5101975;28;20214;-59
2022/04/29 10:23:51;;;;;;;3.40;3.10;;;;;;;;;;5102991;28;20392;-59
2022/04/29 10:26:18;;;;;;;3.47;3.17;;;;;;;;;;5101792;28;20216;-58
2022/04/29 10:28:45;;;;;;;2.70;2.50;;;;;;;;;;5102386;28;20211;-59
2022/04/29 10:31:16;;;;;;;3.17;2.78;;;;;;;;;;5102314;28;20218;-57
2022/04/29 10:33:42;;;;;;;2.55;2.33;;;;;;;;;;5081744;28;20270;-57
2022/04/29 10:36:09;;;;;;;3.78;3.50;;;;;;;;;;5093127;28;20215;-58
2022/04/29 10:38:37;;;;;;;3.80;3.47;;;;;;;;;;5101830;28;20592;-58
2022/04/29 10:41:16;;;;;;;3.35;2.83;;;;;;;;;;5102196;28;20527;-58
2022/04/29 10:43:47;;;;;;;3.33;2.38;;;;;;;;;;5100242;28;20420;-58
2022/04/29 10:46:21;;;;;;;2.92;2.72;;;;;;;;;;5098896;28;20215;-57
2022/04/29 10:48:47;;;;;;;3.20;2.90;;;;;;;;;;5099764;28;20222;-57
2022/04/29 10:51:16;;;;;;;4.30;3.38;;;;;;;;;;5099479;28;20231;-57
2022/04/29 10:53:44;;;;;;;6.38;3.05;;;;;;;;;;5099027;28;20204;-57
2022/04/29 10:56:30;;;;;;;3.15;2.67;;;;;;;;;;5099006;28;20504;-57
2022/04/29 10:58:59;;;;;;;3.08;2.78;;;;;;;;;;5098969;28;20666;-57
2022/04/29 11:01:27;;;;;;;6.60;2.15;;;;;;;;;;5098298;28;20454;-57
2022/04/29 11:03:54;;;;;;;2.72;2.63;;;;;;;;;;5098348;28;20593;-58
2022/04/29 11:06:20;;;;;;;3.20;2.70;;;;;;;;;;5098304;28;20281;-57
2022/04/29 11:08:49;;;;;;;2.88;2.55;;;;;;;;;;5099129;28;20249;-57
2022/04/29 11:11:16;;;;;;;6.70;3.08;;;;;;;;;;5099089;28;20279;-59
2022/04/29 11:13:43;;;;;;;2.53;2.30;;;;;;;;;;5098431;28;20401;-59
2022/04/29 11:16:10;;;;;;;3.97;2.55;;;;;;;;;;5098599;28;20519;-59
2022/04/29 11:18:37;;;;;;;2.90;2.47;;;;;;;;;;5098822;28;20272;-58
2022/04/29 11:24:40;;;;;;;6.07;2.60;;;;;;;;;;5098926;28;20208;-58
2022/04/29 11:26:42;;;;;;;5.05;2.63;;;;;;;;;;5097890;28;20245;-57
2022/04/29 11:29:10;;;;;;;5.28;2.33;;;;;;;;;;5099081;28;20199;-59
2022/04/29 11:31:36;;;;;;;2.88;2.70;;;;;;;;;;5098769;28;20235;-57
2022/04/29 11:34:05;;;;;;;5.32;2.40;;;;;;;;;;5098756;28;20245;-56
2022/04/29 11:36:31;;;;;;;3.03;2.78;;;;;;;;;;5097564;28;20216;-58
2022/04/29 11:38:59;;;;;;;3.40;2.83;;;;;;;;;;5098460;28;20227;-57
2022/04/29 11:41:27;;;;;;;3.08;2.88;;;;;;;;;;5098557;28;20214;-56
2022/04/29 11:43:54;;;;;;;6.22;2.78;;;;;;;;;;5098375;28;20208;-56
2022/04/29 11:46:21;;;;;;;2.58;2.47;;;;;;;;;;5097371;28;20293;-57
2022/04/29 11:48:51;;;;;;;8.52;2.90;;;;;;;;;;5098012;28;20204;-57
2022/04/29 11:51:17;;;;;;;4.15;2.85;;;;;;;;;;5098059;28;20196;-56
2022/04/29 11:53:52;;;;;;;4.47;2.33;;;;;;;;;;5097978;28;20216;-57
2022/04/29 11:56:20;;;;;;;3.58;2.55;;;;;;;;;;5096439;28;20215;-57
2022/04/29 11:58:46;;;;;;;2.95;2.75;;;;;;;;;;5097773;28;20231;-56
2022/04/29 12:01:14;;;;;;;2.80;2.60;;;;;;;;;;5098524;28;20535;-57
2022/04/29 12:03:46;;;;;;;2.80;2.60;;;;;;;;;;5098442;28;20207;-58
2022/04/29 12:06:16;;;;;;;3.35;2.80;;;;;;;;;;5097347;28;20481;-57
2022/04/29 12:08:44;;;;;;;2.95;2.72;;;;;;;;;;5097725;28;20204;-59
2022/04/29 12:11:12;;;;;;;3.67;2.38;;;;;;;;;;5098364;28;20203;-58
2022/04/29 12:13:40;;;;;;;3.25;2.70;;;;;;;;;;5097707;28;20537;-59
2022/04/29 12:16:07;;;;;;;3.00;2.45;;;;;;;;;;5097396;28;20212;-58
2022/04/29 12:18:43;;;;;;;2.67;2.58;;;;;;;;;;5077659;28;20532;-57
2022/04/29 12:21:13;;;;;;;3.30;2.53;;;;;;;;;;5077768;28;20265;-56
2022/04/29 12:23:39;;;;;;;3.45;2.70;;;;;;;;;;5077946;28;20531;-56
2022/04/29 12:26:07;;;;;;;5.57;2.83;;;;;;;;;;5077607;28;20204;-57
2022/04/29 12:28:35;;;;;;;2.88;2.67;;;;;;;;;;5093600;28;20215;-56
2022/04/29 12:36:46;;;;;;;4.13;3.13;;;;;;;;;;5094779;28;20321;-58
2022/04/29 12:39:13;;;;;;;2.97;2.78;;;;;;;;;;5095981;28;20246;-57
2022/04/29 12:41:40;;;;;;;3.00;2.90;;;;;;;;;;5094907;28;20405;-58
2022/04/29 12:44:07;;;;;;;6.40;3.15;;;;;;;;;;5101308;28;20203;-56
2022/04/29 12:46:35;;;;;;;4.30;3.50;;;;;;;;;;5103275;28;20430;-57
2022/04/29 12:49:02;;;;;;;17.17;3.50;;;;;;;;;;5102989;28;20192;-56
2022/04/29 12:51:32;;;;;;;5.10;2.75;;;;;;;;;;5103145;28;20203;-57
2022/04/29 12:54:00;;;;;;;4.90;2.47;;;;;;;;;;5103060;28;20205;-58
2022/04/29 12:56:28;;;;;;;3.80;2.80;;;;;;;;;;5102908;28;20195;-57
2022/04/29 12:58:55;;;;;;;2.67;2.47;;;;;;;;;;5102823;28;20382;-57
2022/04/29 13:01:21;;;;;;;4.55;2.47;;;;;;;;;;5103257;28;20443;-56
2022/04/29 13:03:51;;;;;;;5.70;3.10;;;;;;;;;;5102855;28;20241;-57
2022/04/29 13:06:20;;;;;;;3.20;3.00;;;;;;;;;;5102321;28;20295;-57
2022/04/29 13:08:48;;;;;;;3.88;2.90;;;;;;;;;;5103100;28;20541;-57
2022/04/29 13:11:18;;;;;;;4.60;2.78;;;;;;;;;;5102767;28;20191;-56
2022/04/29 13:13:45;;;;;;;3.97;2.67;;;;;;;;;;5103139;28;20202;-57
2022/04/29 13:16:11;;;;;;;2.60;2.50;;;;;;;;;;5102644;28;20199;-56
2022/04/29 13:18:38;;;;;;;3.97;2.35;;;;;;;;;;5102945;28;20495;-58
2022/04/29 13:21:12;;;;;;;2.60;2.17;;;;;;;;;;5102691;28;20257;-57
2022/04/29 13:23:42;;;;;;;2.45;2.28;;;;;;;;;;5102751;28;20368;-58
2022/04/29 13:26:09;;;;;;;5.72;2.80;;;;;;;;;;5102737;28;20200;-57
2022/04/29 13:28:37;;;;;;;2.65;2.55;;;;;;;;;;5102534;28;20192;-56
2022/04/29 13:31:04;;;;;;;2.70;2.50;;;;;;;;;;5102617;28;20195;-57
2022/04/29 13:33:31;;;;;;;3.45;2.30;;;;;;;;;;5102582;28;20222;-56
2022/04/29 13:35:58;;;;;;;2.60;2.47;;;;;;;;;;5102520;28;20188;-57
2022/04/29 13:38:26;;;;;;;2.55;2.40;;;;;;;;;;5102753;28;20195;-56
2022/04/29 13:40:53;;;;;;;4.03;2.22;;;;;;;;;;5102475;28;20278;-56
2022/04/29 13:43:20;;;;;;;2.70;2.50;;;;;;;;;;5102248;28;20195;-58
2022/04/29 13:45:47;;;;;;;2.53;2.30;;;;;;;;;;5101706;28;20195;-58
2022/04/29 13:48:14;;;;;;;3.10;2.63;;;;;;;;;;5101781;28;20195;-56
2022/04/29 13:50:40;;;;;;;3.15;2.55;;;;;;;;;;5102035;28;20262;-57
2022/04/29 13:53:09;;;;;;;3.05;2.45;;;;;;;;;;5102124;28;20196;-57
2022/04/29 13:55:37;;;;;;;2.90;2.72;;;;;;;;;;5102083;28;20196;-57
2022/04/29 13:58:04;;;;;;;3.38;2.72;;;;;;;;;;5101612;28;20564;-57
2022/04/29 14:00:31;;;;;;;2.50;2.30;;;;;;;;;;5102030;28;20223;-57
2022/04/29 14:02:57;;;;;;;5.40;3.28;;;;;;;;;;5101964;28;20218;-56
2022/04/29 14:05:24;;;;;;;4.90;2.85;;;;;;;;;;5102048;28;20215;-57
2022/04/29 14:07:51;;;;;;;3.05;2.95;;;;;;;;;;5102044;28;20379;-58
2022/04/29 14:10:17;;;;;;;2.83;2.63;;;;;;;;;;5102218;28;20191;-57
2022/04/29 14:12:45;;;;;;;2.90;2.80;;;;;;;;;;5101956;28;20515;-57
2022/04/29 14:15:11;;;;;;;5.63;2.90;;;;;;;;;;5102141;28;20495;-57
2022/04/29 14:17:37;;;;;;;2.78;2.58;;;;;;;;;;5101978;28;20196;-57
2022/04/29 14:20:04;;;;;;;4.55;2.35;;;;;;;;;;5105726;28;20227;-58
2022/04/29 14:22:30;;;;;;;3.25;2.78;;;;;;;;;;5105824;28;20199;-57
2022/04/29 14:24:57;;;;;;;3.05;2.83;;;;;;;;;;5105756;28;20223;-58
2022/04/29 14:27:25;;;;;;;6.00;2.83;;;;;;;;;;5105987;28;20199;-56
2022/04/29 14:29:54;;;;;;;4.30;3.22;;;;;;;;;;5106023;28;20192;-56
2022/04/29 14:32:28;;;;;;;2.75;2.40;;;;;;;;;;5105974;28;20195;-57
2022/04/29 14:34:55;;;;;;;2.45;2.30;;;;;;;;;;5105738;28;20288;-56
2022/04/29 14:37:26;;;;;;;4.45;2.40;;;;;;;;;;5105691;28;20195;-58
2022/04/29 14:39:54;;;;;;;2.92;2.63;;;;;;;;;;5105845;28;20276;-57
2022/04/29 14:42:21;;;;;;;2.65;2.38;;;;;;;;;;5105804;28;20647;-56
2022/04/29 14:44:51;;;;;;;2.55;2.45;;;;;;;;;;5105530;28;20199;-57
2022/04/29 14:47:21;;;;;;;3.35;1.75;;;;;;;;;;5105507;28;20249;-56
2022/04/29 14:49:50;;;;;;;2.58;2.38;;;;;;;;;;5105641;28;20192;-57
2022/04/29 14:52:17;;;;;;;1.98;1.90;;;;;;;;;;5106008;28;20200;-57
2022/04/29 14:54:43;;;;;;;2.40;2.30;;;;;;;;;;5105344;28;20270;-57
2022/04/29 14:57:09;;;;;;;2.78;2.63;;;;;;;;;;5105307;28;20196;-56
2022/04/29 14:59:36;;;;;;;4.15;2.60;;;;;;;;;;5105366;28;20218;-56
2022/04/29 15:02:02;;;;;;;3.10;2.75;;;;;;;;;;5105119;28;20210;-56
2022/04/29 15:04:31;;;;;;;2.92;2.22;;;;;;;;;;5105129;28;20203;-58
2022/04/29 15:06:57;;;;;;;3.78;2.92;;;;;;;;;;5104773;28;20231;-58
2022/04/29 15:17:36;;;;;;;2.83;2.60;;;;;;;;;;5104811;28;20191;-57
2022/04/29 15:20:05;;;;;;;2.97;2.75;;;;;;;;;;5104734;28;20222;-56
2022/04/29 15:22:32;;;;;;;2.72;2.40;;;;;;;;;;5104896;28;20218;-56
2022/04/29 15:24:58;;;;;;;3.35;2.95;;;;;;;;;;5104877;28;20395;-56